createdAt,value
2022-11-09T00:01:01.354Z,9.28
2022-11-09T00:03:28.968Z,9.27
2022-11-09T00:05:58.017Z,9.27
2022-11-09T00:08:26.075Z,9.28
2022-11-09T00:10:53.724Z,9.28
2022-11-09T00:13:22.122Z,9.27
2022-11-09T00:15:50.285Z,9.27
2022-11-09T00:18:17.865Z,9.27
2022-11-09T00:20:47.962Z,9.26
2022-11-09T00:23:17.523Z,9.27
2022-11-09T00:25:45.617Z,9.28
2022-11-09T00:28:13.990Z,9.29
2022-11-09T00:30:42.215Z,9.30
2022-11-09T00:33:12.248Z,9.31
2022-11-09T00:35:41.879Z,9.31
2022-11-09T00:38:09.593Z,9.32
2022-11-09T00:40:39.143Z,9.33
2022-11-09T00:43:06.751Z,9.33
2022-11-09T00:45:34.368Z,9.34
2022-11-09T00:48:03.720Z,9.35
2022-11-09T00:50:31.319Z,9.34
2022-11-09T00:52:59.911Z,9.34
2022-11-09T00:55:27.582Z,9.34
2022-11-09T00:57:55.392Z,9.33
2022-11-09T01:00:24.687Z,9.33
2022-11-09T01:02:53.679Z,9.33
2022-11-09T01:05:21.321Z,9.31
2022-11-09T01:07:50.167Z,9.31
2022-11-09T01:10:17.827Z,9.29
2022-11-09T01:12:47.437Z,9.28
2022-11-09T01:15:16.044Z,9.27
2022-11-09T01:17:43.692Z,9.25
2022-11-09T01:20:11.890Z,9.23
2022-11-09T01:22:39.492Z,9.23
2022-11-09T01:25:08.196Z,9.19
2022-11-09T01:27:36.253Z,9.21
2022-11-09T01:30:07.306Z,9.20
2022-11-09T01:32:35.861Z,9.22
2022-11-09T01:35:06.595Z,9.23
2022-11-09T01:37:34.195Z,9.25
2022-11-09T01:40:02.484Z,9.25
2022-11-09T01:42:36.831Z,9.27
2022-11-09T01:45:24.978Z,9.28
2022-11-09T01:47:58.745Z,9.28
2022-11-09T01:50:38.713Z,9.29
2022-11-09T01:53:10.253Z,9.31
2022-11-09T01:55:39.701Z,9.33
2022-11-09T01:58:10.167Z,9.35
2022-11-09T02:00:39.103Z,9.36
2022-11-09T02:03:15.865Z,9.35
2022-11-09T02:05:44.357Z,9.35
2022-11-09T02:08:15.163Z,9.35
2022-11-09T02:11:09.860Z,9.35
2022-11-09T02:13:47.071Z,9.34
2022-11-09T02:16:15.448Z,9.35
2022-11-09T02:18:52.940Z,9.35
2022-11-09T02:21:21.894Z,9.35
2022-11-09T02:23:50.488Z,9.35
2022-11-09T02:26:32.418Z,9.35
2022-11-09T02:29:03.429Z,9.36
2022-11-09T02:31:35.140Z,9.36
2022-11-09T02:34:08.803Z,9.37
2022-11-09T02:36:36.486Z,9.37
2022-11-09T02:39:05.230Z,9.39
2022-11-09T02:41:38.574Z,9.38
2022-11-09T02:44:06.278Z,9.38
2022-11-09T02:46:35.628Z,9.38
2022-11-09T02:49:04.271Z,9.38
2022-11-09T02:51:32.591Z,9.38
2022-11-09T02:54:00.172Z,9.39
2022-11-09T02:56:27.985Z,9.40
2022-11-09T02:58:56.030Z,9.40
2022-11-09T03:01:24.135Z,9.41
2022-11-09T03:03:51.854Z,9.41
2022-11-09T03:06:19.549Z,9.42
2022-11-09T03:08:47.337Z,9.42
2022-11-09T03:11:15.264Z,9.43
2022-11-09T03:13:43.079Z,9.44
2022-11-09T03:16:11.172Z,9.43
2022-11-09T03:18:40.090Z,9.42
2022-11-09T03:21:08.107Z,9.42
2022-11-09T03:23:36.425Z,9.42
2022-11-09T03:26:04.306Z,9.40
2022-11-09T03:28:32.027Z,9.40
2022-11-09T03:30:59.676Z,9.38
2022-11-09T03:33:27.268Z,9.36
2022-11-09T03:35:55.110Z,9.35
2022-11-09T03:38:23.296Z,9.33
2022-11-09T03:40:51.286Z,9.31
2022-11-09T03:43:19.451Z,9.28
2022-11-09T03:45:48.196Z,9.25
2022-11-09T03:48:15.822Z,9.23
2022-11-09T03:50:43.509Z,9.21
2022-11-09T03:53:11.940Z,9.19
2022-11-09T03:55:39.871Z,9.18
2022-11-09T03:58:09.589Z,9.18
2022-11-09T04:00:37.234Z,9.18
2022-11-09T04:03:04.841Z,9.18
2022-11-09T04:05:32.450Z,9.19
2022-11-09T04:08:00.058Z,9.19
2022-11-09T04:10:27.966Z,9.20
2022-11-09T04:12:55.620Z,9.21
2022-11-09T04:15:23.243Z,9.23
2022-11-09T04:17:55.741Z,9.24
2022-11-09T04:20:23.332Z,9.25
2022-11-09T04:23:04.264Z,9.28
2022-11-09T04:25:33.873Z,9.30
2022-11-09T04:28:02.893Z,9.32
2022-11-09T04:30:33.302Z,9.35
2022-11-09T04:33:02.051Z,9.40
2022-11-09T04:35:30.576Z,9.43
2022-11-09T04:38:05.651Z,9.46
2022-11-09T04:40:34.943Z,9.50
2022-11-09T04:43:04.117Z,9.51
2022-11-09T04:45:33.973Z,9.52
2022-11-09T04:48:03.762Z,9.52
2022-11-09T04:50:32.235Z,9.52
2022-11-09T04:53:13.437Z,9.52
2022-11-09T04:55:41.515Z,9.53
2022-11-09T04:58:09.833Z,9.54
2022-11-09T05:00:38.083Z,9.54
2022-11-09T05:03:06.934Z,9.55
2022-11-09T05:05:36.030Z,9.56
2022-11-09T05:08:04.841Z,9.56
2022-11-09T05:10:32.978Z,9.57
2022-11-09T05:13:01.900Z,9.58
2022-11-09T05:15:30.290Z,9.57
2022-11-09T05:17:58.195Z,9.57
2022-11-09T05:20:25.829Z,9.56
2022-11-09T05:23:12.567Z,9.54
2022-11-09T05:25:40.156Z,9.52
2022-11-09T05:28:09.551Z,9.50
2022-11-09T05:30:37.562Z,9.48
2022-11-09T05:33:05.261Z,9.47
2022-11-09T05:35:33.711Z,9.45
2022-11-09T05:38:01.381Z,9.42
2022-11-09T05:40:29.206Z,9.41
2022-11-09T05:42:56.862Z,9.39
2022-11-09T05:45:42.099Z,9.38
2022-11-09T05:48:12.978Z,9.36
2022-11-09T05:50:41.385Z,9.34
2022-11-09T05:53:27.770Z,9.32
2022-11-09T05:55:55.579Z,9.31
2022-11-09T05:58:23.200Z,9.31
2022-11-09T06:00:50.805Z,9.30
2022-11-09T06:03:18.802Z,9.30
2022-11-09T06:05:47.593Z,9.30
2022-11-09T06:08:15.641Z,9.29
2022-11-09T06:10:43.268Z,9.29
2022-11-09T06:13:11.094Z,9.32
2022-11-09T06:15:38.696Z,9.33
2022-11-09T06:18:06.365Z,9.35
2022-11-09T06:20:33.949Z,9.37
2022-11-09T06:23:04.002Z,9.39
2022-11-09T06:25:33.130Z,9.40
2022-11-09T06:28:01.065Z,9.42
2022-11-09T06:30:29.139Z,9.45
2022-11-09T06:33:00.824Z,9.48
2022-11-09T06:35:29.784Z,9.52
2022-11-09T06:37:59.472Z,9.56
2022-11-09T06:40:28.283Z,9.59
2022-11-09T06:42:58.181Z,9.62
2022-11-09T06:45:26.892Z,9.66
2022-11-09T06:47:58.872Z,9.70
2022-11-09T06:50:28.330Z,9.74
2022-11-09T06:53:01.007Z,9.78
2022-11-09T06:55:29.747Z,9.81
2022-11-09T06:57:58.378Z,9.84
2022-11-09T07:00:27.415Z,9.87
2022-11-09T07:02:55.017Z,9.91
2022-11-09T07:05:22.992Z,9.96
2022-11-09T07:07:50.727Z,10.01
2022-11-09T07:10:18.351Z,10.05
2022-11-09T07:12:45.985Z,10.09
2022-11-09T07:15:13.761Z,10.13
2022-11-09T07:17:41.404Z,10.16
2022-11-09T07:20:10.508Z,10.17
2022-11-09T07:22:42.002Z,10.20
2022-11-09T07:25:11.357Z,10.22
2022-11-09T07:27:38.941Z,10.25
2022-11-09T07:30:07.412Z,10.27
2022-11-09T07:33:06.880Z,10.31
2022-11-09T07:35:23.564Z,10.33
2022-11-09T07:37:51.159Z,10.35
2022-11-09T07:40:19.569Z,10.38
2022-11-09T07:42:47.171Z,10.42
2022-11-09T07:45:14.848Z,10.46
2022-11-09T07:47:42.424Z,10.49
2022-11-09T07:50:10.308Z,10.52
2022-11-09T07:52:37.921Z,10.55
2022-11-09T07:55:06.174Z,10.58
2022-11-09T07:57:33.737Z,10.63
2022-11-09T08:00:01.344Z,10.70
2022-11-09T08:02:39.016Z,10.76
2022-11-09T08:05:07.311Z,10.85
2022-11-09T08:07:34.922Z,10.92
2022-11-09T08:10:02.563Z,10.98
2022-11-09T08:12:35.769Z,11.00
2022-11-09T08:15:05.923Z,11.02
2022-11-09T08:17:33.506Z,11.03
2022-11-09T08:20:01.134Z,11.07
2022-11-09T08:22:28.985Z,11.10
2022-11-09T08:24:56.627Z,11.13
2022-11-09T08:27:24.287Z,11.15
2022-11-09T08:29:51.846Z,11.18
2022-11-09T08:32:19.473Z,11.21
2022-11-09T08:34:48.533Z,11.25
2022-11-09T08:37:16.813Z,11.29
2022-11-09T08:39:44.383Z,11.31
2022-11-09T08:42:11.977Z,11.33
2022-11-09T08:44:39.563Z,11.36
2022-11-09T08:47:07.155Z,11.40
2022-11-09T08:49:35.344Z,11.43
2022-11-09T08:52:02.945Z,11.47
2022-11-09T08:54:30.529Z,11.49
2022-11-09T08:56:58.087Z,11.50
2022-11-09T08:59:25.866Z,11.54
2022-11-09T09:01:53.872Z,11.57
2022-11-09T09:04:21.637Z,11.61
2022-11-09T09:06:49.455Z,11.64
2022-11-09T09:09:17.089Z,11.66
2022-11-09T09:11:44.681Z,11.68
2022-11-09T09:14:12.305Z,11.74
2022-11-09T09:16:39.956Z,11.79
2022-11-09T09:19:07.587Z,11.87
2022-11-09T09:21:35.159Z,11.95
2022-11-09T09:24:03.277Z,12.01
2022-11-09T09:26:30.868Z,12.07
2022-11-09T09:28:58.828Z,12.15
2022-11-09T09:31:26.480Z,12.21
2022-11-09T09:33:54.385Z,12.30
2022-11-09T09:36:23.390Z,12.38
2022-11-09T09:38:52.645Z,12.46
2022-11-09T09:41:41.707Z,12.51
2022-11-09T09:44:30.807Z,12.57
2022-11-09T09:47:22.313Z,12.61
2022-11-09T09:49:54.865Z,12.66
2022-11-09T09:52:41.194Z,12.70
2022-11-09T09:55:15.932Z,12.70
2022-11-09T09:57:48.497Z,12.74
2022-11-09T10:00:21.753Z,12.75
2022-11-09T10:02:50.844Z,12.78
2022-11-09T10:05:20.087Z,12.82
2022-11-09T10:07:57.640Z,12.86
2022-11-09T10:11:03.283Z,12.91
2022-11-09T10:14:04.617Z,12.95
2022-11-09T10:16:48.305Z,12.96
2022-11-09T10:19:25.883Z,12.97
2022-11-09T10:21:59.437Z,13.01
2022-11-09T10:24:48.602Z,13.07
2022-11-09T10:27:36.980Z,13.16
2022-11-09T10:30:14.012Z,13.27
2022-11-09T10:32:43.803Z,13.36
2022-11-09T10:35:24.589Z,13.44
2022-11-09T10:37:53.071Z,13.51
2022-11-09T10:40:26.665Z,13.57
2022-11-09T10:43:14.556Z,13.62
2022-11-09T10:46:06.475Z,13.69
2022-11-09T10:48:54.252Z,13.75
2022-11-09T10:51:42.738Z,13.86
2022-11-09T10:54:35.460Z,13.95
2022-11-09T10:57:23.968Z,14.03
2022-11-09T11:00:20.730Z,14.08
2022-11-09T11:03:14.794Z,14.06
2022-11-09T11:06:15.860Z,14.05
2022-11-09T11:09:02.033Z,14.05
2022-11-09T11:11:48.419Z,14.05
2022-11-09T11:14:42.457Z,14.04
2022-11-09T11:17:38.331Z,14.05
2022-11-09T11:20:37.166Z,14.05
2022-11-09T11:23:26.155Z,14.05
2022-11-09T11:26:38.989Z,14.06
2022-11-09T11:29:33.724Z,14.05
2022-11-09T11:32:20.705Z,14.01
2022-11-09T11:35:19.002Z,14.00
2022-11-09T11:38:29.036Z,13.99
2022-11-09T11:41:34.399Z,13.97
2022-11-09T11:44:34.233Z,13.98
2022-11-09T11:47:46.363Z,13.99
2022-11-09T11:51:09.750Z,14.00
2022-11-09T11:54:17.242Z,13.99
2022-11-09T11:57:28.507Z,13.98
2022-11-09T12:00:18.136Z,13.96
2022-11-09T12:03:23.553Z,13.94
2022-11-09T12:06:31.423Z,13.91
2022-11-09T12:09:43.124Z,13.87
2022-11-09T12:13:01.475Z,13.84
2022-11-09T12:15:59.533Z,13.82
2022-11-09T12:19:14.973Z,13.81
2022-11-09T12:22:11.743Z,13.79
2022-11-09T12:25:03.931Z,13.77
2022-11-09T12:28:18.297Z,13.75
2022-11-09T12:31:24.819Z,13.74
2022-11-09T12:34:28.597Z,13.73
2022-11-09T12:37:24.417Z,13.71
2022-11-09T12:40:21.002Z,13.69
2022-11-09T12:43:30.251Z,13.67
2022-11-09T12:46:18.895Z,13.66
2022-11-09T12:49:05.994Z,13.65
2022-11-09T12:51:57.911Z,13.64
2022-11-09T12:54:48.286Z,13.66
2022-11-09T12:57:34.625Z,13.67
2022-11-09T13:00:45.989Z,13.68
2022-11-09T13:03:35.169Z,13.67
2022-11-09T13:06:29.867Z,13.67
2022-11-09T13:09:16.270Z,13.66
2022-11-09T13:12:32.757Z,13.66
2022-11-09T13:15:26.999Z,13.62
2022-11-09T13:18:25.951Z,13.58
2022-11-09T13:21:21.649Z,13.55
2022-11-09T13:24:48.777Z,13.54
2022-11-09T13:27:48.650Z,13.48
2022-11-09T13:30:40.880Z,13.45
2022-11-09T13:33:28.557Z,13.44
2022-11-09T13:36:17.476Z,13.42
2022-11-09T13:39:31.159Z,13.41
2022-11-09T13:42:27.907Z,13.38
2022-11-09T13:45:31.931Z,13.37
2022-11-09T13:48:36.641Z,13.33
2022-11-09T13:51:34.951Z,13.31
2022-11-09T13:54:29.092Z,13.28
2022-11-09T13:57:16.598Z,13.27
2022-11-09T14:00:06.379Z,13.24
2022-11-09T14:02:58.283Z,13.22
2022-11-09T14:05:44.782Z,13.19
2022-11-09T14:08:40.285Z,13.16
2022-11-09T14:12:05.325Z,13.12
2022-11-09T14:15:01.718Z,13.07
2022-11-09T14:18:20.565Z,13.03
2022-11-09T14:21:28.647Z,12.97
2022-11-09T14:24:17.699Z,12.93
2022-11-09T14:27:09.836Z,12.89
2022-11-09T14:30:00.939Z,12.85
2022-11-09T14:32:51.520Z,12.82
2022-11-09T14:35:39.231Z,12.79
2022-11-09T14:38:35.875Z,12.78
2022-11-09T14:41:25.059Z,12.75
2022-11-09T14:44:26.371Z,12.73
2022-11-09T14:47:18.339Z,12.70
2022-11-09T14:50:05.319Z,12.66
2022-11-09T14:52:53.613Z,12.65
2022-11-09T14:55:41.394Z,12.63
2022-11-09T14:58:29.976Z,12.61
2022-11-09T15:01:24.173Z,12.59
2022-11-09T15:04:13.598Z,12.56
2022-11-09T15:07:03.825Z,12.52
2022-11-09T15:09:57.670Z,12.50
2022-11-09T15:12:52.815Z,12.48
2022-11-09T15:15:40.010Z,12.45
2022-11-09T15:18:34.059Z,12.44
2022-11-09T15:21:35.533Z,12.41
2022-11-09T15:24:23.299Z,12.38
2022-11-09T15:27:34.470Z,12.38
2022-11-09T15:30:36.608Z,12.34
2022-11-09T15:33:29.703Z,12.32
2022-11-09T15:36:35.028Z,12.29
2022-11-09T15:39:22.891Z,12.28
2022-11-09T15:42:12.780Z,12.29
2022-11-09T15:44:59.560Z,12.29
2022-11-09T15:47:52.151Z,12.30
2022-11-09T15:50:39.315Z,12.31
2022-11-09T15:53:26.279Z,12.31
2022-11-09T15:56:21.529Z,12.30
2022-11-09T15:59:13.037Z,12.26
2022-11-09T16:01:59.451Z,12.22
2022-11-09T16:04:46.254Z,12.19
2022-11-09T16:07:32.591Z,12.16
2022-11-09T16:10:20.487Z,12.14
2022-11-09T16:13:07.713Z,12.11
2022-11-09T16:16:02.178Z,12.08
2022-11-09T16:18:48.872Z,12.04
2022-11-09T16:21:35.280Z,12.02
2022-11-09T16:24:21.992Z,12.00
2022-11-09T16:27:12.771Z,11.98
2022-11-09T16:30:09.633Z,11.95
2022-11-09T16:32:56.100Z,11.93
2022-11-09T16:35:42.544Z,11.92
2022-11-09T16:38:29.350Z,11.90
2022-11-09T16:41:16.601Z,11.91
2022-11-09T16:44:03.367Z,11.89
2022-11-09T16:46:49.668Z,11.86
2022-11-09T16:49:36.099Z,11.83
2022-11-09T16:52:23.208Z,11.81
2022-11-09T16:55:10.215Z,11.79
2022-11-09T16:57:56.892Z,11.77
2022-11-09T17:01:13.022Z,11.76
2022-11-09T17:03:51.738Z,11.73
2022-11-09T17:06:38.229Z,11.70
2022-11-09T17:09:24.693Z,11.69
2022-11-09T17:12:11.365Z,11.65
2022-11-09T17:14:57.907Z,11.60
2022-11-09T17:17:44.349Z,11.55
2022-11-09T17:20:31.065Z,11.51
2022-11-09T17:23:18.931Z,11.46
2022-11-09T17:26:06.996Z,11.41
2022-11-09T17:28:53.586Z,11.37
2022-11-09T17:31:39.723Z,11.32
2022-11-09T17:34:26.223Z,11.29
2022-11-09T17:37:12.900Z,11.26
2022-11-09T17:39:59.473Z,11.23
2022-11-09T17:42:46.204Z,11.20
2022-11-09T17:45:34.813Z,11.18
2022-11-09T17:48:21.555Z,11.15
2022-11-09T17:51:09.338Z,11.13
2022-11-09T17:53:55.599Z,11.11
2022-11-09T17:56:42.088Z,11.10
2022-11-09T17:59:28.615Z,11.09
2022-11-09T18:02:15.579Z,11.07
2022-11-09T18:05:02.140Z,11.06
2022-11-09T18:07:48.396Z,11.06
2022-11-09T18:10:35.943Z,11.07
2022-11-09T18:13:22.361Z,11.05
2022-11-09T18:16:17.104Z,11.04
2022-11-09T18:19:05.016Z,11.03
2022-11-09T18:21:51.439Z,11.01
2022-11-09T18:24:37.845Z,11.00
2022-11-09T18:27:29.914Z,10.98
2022-11-09T18:30:17.423Z,10.97
2022-11-09T18:33:03.560Z,10.97
2022-11-09T18:36:04.059Z,10.97
2022-11-09T18:38:51.928Z,10.96
2022-11-09T18:41:38.307Z,10.95
2022-11-09T18:44:24.928Z,10.94
2022-11-09T18:47:13.691Z,10.93
2022-11-09T18:49:59.841Z,10.91
2022-11-09T18:52:46.440Z,10.89
2022-11-09T18:55:32.906Z,10.87
2022-11-09T18:58:19.375Z,10.84
2022-11-09T19:01:07.669Z,10.80
2022-11-09T19:03:59.315Z,10.78
2022-11-09T19:06:46.301Z,10.74
2022-11-09T19:09:35.758Z,10.71
2022-11-09T19:12:24.256Z,10.69
2022-11-09T19:15:10.479Z,10.66
2022-11-09T19:17:57.102Z,10.62
2022-11-09T19:20:43.577Z,10.58
2022-11-09T19:23:34.417Z,10.54
2022-11-09T19:26:22.072Z,10.51
2022-11-09T19:29:09.591Z,10.48
2022-11-09T19:31:55.763Z,10.47
2022-11-09T19:34:43.557Z,10.43
2022-11-09T19:37:29.830Z,10.38
2022-11-09T19:40:16.532Z,10.34
2022-11-09T19:43:03.091Z,10.28
2022-11-09T19:45:49.674Z,10.25
2022-11-09T19:48:36.114Z,10.22
2022-11-09T19:51:23.310Z,10.18
2022-11-09T19:54:11.735Z,10.14
2022-11-09T19:56:57.999Z,10.10
2022-11-09T19:59:44.248Z,10.06
2022-11-09T20:02:30.996Z,10.02
2022-11-09T20:05:17.228Z,9.99
2022-11-09T20:08:04.366Z,9.96
2022-11-09T20:10:52.289Z,9.93
2022-11-09T20:13:39.963Z,9.92
2022-11-09T20:16:26.493Z,9.90
2022-11-09T20:19:14.146Z,9.89
2022-11-09T20:22:00.359Z,9.86
2022-11-09T20:24:46.777Z,9.85
2022-11-09T20:27:33.664Z,9.83
2022-11-09T20:30:20.348Z,9.80
2022-11-09T20:33:07.269Z,9.78
2022-11-09T20:35:56.725Z,9.76
2022-11-09T20:38:43.588Z,9.71
2022-11-09T20:41:30.232Z,9.68
2022-11-09T20:44:16.745Z,9.64
2022-11-09T20:47:03.939Z,9.62
2022-11-09T20:49:50.544Z,9.59
2022-11-09T20:52:37.124Z,9.57
2022-11-09T20:55:24.608Z,9.56
2022-11-09T20:58:12.633Z,9.54
2022-11-09T21:01:06.140Z,9.52
2022-11-09T21:03:53.625Z,9.50
2022-11-09T21:06:40.121Z,9.49
2022-11-09T21:09:26.650Z,9.49
2022-11-09T21:12:21.833Z,9.49
2022-11-09T21:15:08.852Z,9.49
2022-11-09T21:17:55.520Z,9.51
2022-11-09T21:20:42.015Z,9.51
2022-11-09T21:23:28.347Z,9.51
2022-11-09T21:26:33.358Z,9.50
2022-11-09T21:29:42.174Z,9.47
2022-11-09T21:32:30.663Z,9.45
2022-11-09T21:35:17.232Z,9.43
2022-11-09T21:38:03.483Z,9.43
2022-11-09T21:40:50.091Z,9.42
2022-11-09T21:43:36.258Z,9.41
2022-11-09T21:46:23.911Z,9.41
2022-11-09T21:49:12.589Z,9.41
2022-11-09T21:51:59.196Z,9.41
2022-11-09T21:54:45.767Z,9.40
2022-11-09T21:57:32.367Z,9.40
2022-11-09T22:00:19.033Z,9.40
2022-11-09T22:03:05.459Z,9.38
2022-11-09T22:05:51.852Z,9.36
2022-11-09T22:08:38.886Z,9.34
2022-11-09T22:11:52.530Z,9.33
2022-11-09T22:14:57.407Z,9.29
2022-11-09T22:17:43.900Z,9.27
2022-11-09T22:20:49.046Z,9.25
2022-11-09T22:23:35.449Z,9.23
2022-11-09T22:26:21.877Z,9.23
2022-11-09T22:29:08.295Z,9.23
2022-11-09T22:31:54.769Z,9.25
2022-11-09T22:34:41.295Z,9.26
2022-11-09T22:37:27.820Z,9.28
2022-11-09T22:40:14.305Z,9.30
2022-11-09T22:43:00.853Z,9.32
2022-11-09T22:45:47.377Z,9.33
2022-11-09T22:48:34.876Z,9.34
2022-11-09T22:51:21.457Z,9.34
2022-11-09T22:54:08.108Z,9.35
2022-11-09T22:56:54.566Z,9.35
2022-11-09T22:59:41.688Z,9.35
2022-11-09T23:02:28.886Z,9.37
2022-11-09T23:05:15.336Z,9.38
2022-11-09T23:08:01.578Z,9.38
2022-11-09T23:10:55.265Z,9.38
2022-11-09T23:13:42.434Z,9.37
2022-11-09T23:16:28.526Z,9.36
2022-11-09T23:19:15.068Z,9.34
2022-11-09T23:22:01.827Z,9.32
2022-11-09T23:25:06.641Z,9.30
2022-11-09T23:27:53.495Z,9.27
2022-11-09T23:30:40.169Z,9.24
2022-11-09T23:33:27.127Z,9.23
2022-11-09T23:36:13.813Z,9.22
2022-11-09T23:39:00.309Z,9.22
2022-11-09T23:41:46.759Z,9.22
2022-11-09T23:44:33.187Z,9.23
2022-11-09T23:47:19.721Z,9.23
2022-11-09T23:50:06.640Z,9.22
2022-11-09T23:52:56.843Z,9.22
2022-11-09T23:55:43.646Z,9.21
2022-11-09T23:58:30.083Z,9.20
